Time;durP1;ratioP1;P1;durP2;ratioP2;P2;SDS_P1;SDS_P2;PMS_P1;PMS_P2;Temp;Humidity;BMP_temperature;BMP_pressure;BME280_temperature;BME280_humidity;BME280_pressure;Samples;Min_cycle;Max_cycle;Signal;HPM_P1;HPM_P2
2022/06/29 00:00:06;;;;;;;8.43;3.60;;;15.60;99.90;;;;;;5091716;28;20949;-82
2022/06/29 00:02:32;;;;;;;6.57;3.77;;;15.50;99.90;;;;;;5085414;28;20450;-78
2022/06/29 00:04:58;;;;;;;4.27;3.00;;;15.50;99.90;;;;;;5087977;28;20466;-79
2022/06/29 00:07:24;;;;;;;7.03;3.30;;;15.50;99.90;;;;;;5089355;28;20480;-78
2022/06/29 00:09:49;;;;;;;5.17;3.10;;;15.50;99.90;;;;;;5091560;28;20188;-78
2022/06/29 00:12:15;;;;;;;4.80;3.10;;;15.50;99.90;;;;;;5093466;28;20204;-81
2022/06/29 00:14:43;;;;;;;9.80;3.90;;;15.50;99.90;;;;;;5088717;28;20177;-79
2022/06/29 00:17:10;;;;;;;6.20;3.20;;;15.50;99.90;;;;;;5087536;28;20219;-77
2022/06/29 00:19:36;;;;;;;5.40;2.93;;;15.40;99.90;;;;;;5092111;28;20446;-78
2022/06/29 00:22:03;;;;;;;5.40;3.23;;;15.40;99.90;;;;;;5084606;28;20484;-78
2022/06/29 00:24:29;;;;;;;4.90;2.93;;;15.40;99.90;;;;;;5092860;28;20271;-78
2022/06/29 00:26:55;;;;;;;8.53;2.63;;;15.40;99.90;;;;;;5078080;28;20789;-79
2022/06/29 00:29:21;;;;;;;4.73;3.13;;;15.40;99.90;;;;;;5091745;28;20446;-79
2022/06/29 00:31:47;;;;;;;5.90;3.43;;;15.40;99.90;;;;;;5080042;28;20287;-78
2022/06/29 00:34:13;;;;;;;4.40;3.00;;;15.40;99.90;;;;;;5090213;28;20513;-79
2022/06/29 00:36:38;;;;;;;7.63;3.30;;;15.40;99.90;;;;;;5087962;28;20739;-78
2022/06/29 00:39:04;;;;;;;3.87;2.70;;;15.40;99.90;;;;;;5094585;28;20216;-78
2022/06/29 00:41:30;;;;;;;5.57;3.43;;;15.40;99.90;;;;;;5091552;28;20215;-76
2022/06/29 00:43:55;;;;;;;7.23;3.60;;;15.40;99.90;;;;;;5090614;28;20180;-78
2022/06/29 00:46:21;;;;;;;5.43;3.10;;;15.50;99.90;;;;;;5090861;28;20749;-78
2022/06/29 00:48:46;;;;;;;6.00;3.70;;;15.40;99.90;;;;;;5077563;28;20183;-79
2022/06/29 00:51:16;;;;;;;5.00;3.20;;;15.40;99.90;;;;;;5089602;28;20184;-81
2022/06/29 00:53:45;;;;;;;4.30;2.93;;;15.40;99.90;;;;;;5099309;28;20668;-82
2022/06/29 00:56:13;;;;;;;5.10;3.13;;;15.40;99.90;;;;;;5094994;28;20458;-78
2022/06/29 00:58:40;;;;;;;3.90;2.90;;;15.30;99.90;;;;;;5099580;28;20424;-83
2022/06/29 01:01:07;;;;;;;4.73;2.70;;;15.30;99.90;;;;;;5089204;28;21243;-76
2022/06/29 01:03:33;;;;;;;5.07;3.20;;;15.30;99.90;;;;;;5091640;28;20453;-79
2022/06/29 01:06:00;;;;;;;7.23;3.90;;;15.30;99.90;;;;;;5097083;27;20421;-79
2022/06/29 01:08:26;;;;;;;4.80;3.40;;;15.30;99.90;;;;;;5085263;28;21318;-81
2022/06/29 01:10:52;;;;;;;4.77;3.03;;;15.30;99.90;;;;;;5089941;28;20473;-76
2022/06/29 01:13:18;;;;;;;4.60;3.10;;;15.20;99.90;;;;;;5086354;28;20455;-77
2022/06/29 01:15:43;;;;;;;4.77;2.90;;;15.20;99.90;;;;;;5109155;28;20164;-83
2022/06/29 01:18:09;;;;;;;5.67;3.10;;;15.20;99.90;;;;;;5118463;28;20252;-78
2022/06/29 01:20:34;;;;;;;5.43;3.20;;;15.20;99.90;;;;;;5104848;28;20216;-83
2022/06/29 01:23:01;;;;;;;5.87;3.40;;;15.20;99.90;;;;;;5116679;28;20195;-83
2022/06/29 01:25:26;;;;;;;7.83;4.63;;;15.20;99.90;;;;;;5113039;28;20181;-85
2022/06/29 01:27:52;;;;;;;7.33;4.00;;;15.20;99.90;;;;;;5097979;28;20430;-79
2022/06/29 01:30:18;;;;;;;5.07;3.07;;;15.30;99.90;;;;;;5092609;28;20195;-78
2022/06/29 01:32:43;;;;;;;5.00;2.80;;;15.30;99.90;;;;;;5079320;28;20219;-77
2022/06/29 01:35:12;;;;;;;5.47;3.90;;;15.30;99.90;;;;;;5091701;28;20177;-78
2022/06/29 01:37:42;;;;;;;7.00;4.03;;;15.30;99.90;;;;;;5087132;28;20588;-78
2022/06/29 01:40:09;;;;;;;5.20;3.27;;;15.30;99.90;;;;;;5077524;28;20825;-77
2022/06/29 01:42:35;;;;;;;10.47;3.87;;;15.30;99.90;;;;;;5076317;28;20451;-78
2022/06/29 01:45:00;;;;;;;4.20;3.17;;;15.30;99.90;;;;;;5078101;28;20429;-80
2022/06/29 01:47:26;;;;;;;6.20;3.40;;;15.30;99.90;;;;;;5082222;28;20927;-78
2022/06/29 01:49:52;;;;;;;22.50;3.87;;;15.30;99.90;;;;;;5086517;28;20182;-78
2022/06/29 01:52:17;;;;;;;5.47;3.30;;;15.20;99.90;;;;;;5085404;28;20232;-79
2022/06/29 01:54:43;;;;;;;4.50;3.43;;;15.20;99.90;;;;;;5088915;28;20180;-79
2022/06/29 01:57:09;;;;;;;4.23;3.07;;;15.30;99.90;;;;;;5084147;28;20572;-81
2022/06/29 01:59:35;;;;;;;4.83;3.03;;;15.20;99.90;;;;;;5089723;28;20596;-78
2022/06/29 02:02:01;;;;;;;6.67;3.53;;;15.20;99.90;;;;;;5076844;28;20208;-80
2022/06/29 02:04:26;;;;;;;6.67;3.50;;;15.20;99.90;;;;;;5081811;28;20177;-78
2022/06/29 02:06:52;;;;;;;6.73;3.33;;;15.10;99.90;;;;;;5086336;28;20518;-78
2022/06/29 02:09:18;;;;;;;7.53;3.77;;;15.10;99.90;;;;;;5089457;28;20186;-80
2022/06/29 02:11:44;;;;;;;5.13;3.43;;;15.10;99.90;;;;;;5081886;28;20218;-79
2022/06/29 02:14:10;;;;;;;5.00;3.30;;;15.10;99.90;;;;;;5090646;28;20644;-78
2022/06/29 02:16:36;;;;;;;4.67;2.80;;;15.10;99.90;;;;;;5078279;28;20634;-77
2022/06/29 02:19:02;;;;;;;3.83;2.63;;;15.10;99.90;;;;;;5086059;28;21108;-78
2022/06/29 02:21:28;;;;;;;6.07;3.50;;;15.10;99.90;;;;;;5075593;28;20458;-78
2022/06/29 02:23:53;;;;;;;5.13;3.00;;;15.10;99.90;;;;;;5091442;28;20414;-78
2022/06/29 02:26:19;;;;;;;5.80;3.80;;;15.10;99.90;;;;;;5088943;28;20184;-78
2022/06/29 02:28:45;;;;;;;5.23;3.07;;;15.10;99.90;;;;;;5089451;28;20204;-78
2022/06/29 02:36:39;;;;;;;13.27;3.60;;;15.00;99.90;;;;;;5084593;28;20494;-78
2022/06/29 02:39:04;;;;;;;4.60;2.60;;;15.00;99.90;;;;;;5086048;28;20434;-78
2022/06/29 02:41:30;;;;;;;4.43;3.00;;;15.00;99.90;;;;;;5083564;28;20219;-78
2022/06/29 02:43:56;;;;;;;5.47;3.50;;;15.00;99.90;;;;;;5088303;28;20173;-78
2022/06/29 02:46:21;;;;;;;14.17;4.07;;;15.00;99.90;;;;;;5085292;28;20204;-78
2022/06/29 02:48:47;;;;;;;6.23;3.20;;;15.00;99.90;;;;;;5086257;28;20196;-81
2022/06/29 02:51:13;;;;;;;5.23;3.60;;;15.00;99.90;;;;;;5087865;28;20241;-77
2022/06/29 02:53:38;;;;;;;8.20;4.13;;;15.00;99.90;;;;;;5087064;28;20225;-78
2022/06/29 02:56:04;;;;;;;6.00;3.60;;;15.00;99.90;;;;;;5083228;28;20189;-79
2022/06/29 02:58:30;;;;;;;6.93;3.40;;;15.00;99.90;;;;;;5091588;28;20548;-80
2022/06/29 03:00:56;;;;;;;5.50;3.33;;;14.90;99.90;;;;;;5086806;28;20246;-80
2022/06/29 03:03:21;;;;;;;5.00;2.93;;;14.90;99.90;;;;;;5089943;28;20205;-79
2022/06/29 03:05:47;;;;;;;5.40;3.47;;;14.90;99.90;;;;;;5089324;28;20185;-76
2022/06/29 03:08:12;;;;;;;12.03;3.23;;;14.90;99.90;;;;;;5086749;28;20230;-76
2022/06/29 03:10:38;;;;;;;6.50;4.17;;;14.90;99.90;;;;;;5084907;28;20238;-79
2022/06/29 03:13:04;;;;;;;11.43;3.63;;;14.90;99.90;;;;;;5083254;28;20626;-77
2022/06/29 03:15:29;;;;;;;5.20;3.50;;;14.80;99.90;;;;;;5086847;28;20725;-75
2022/06/29 03:17:55;;;;;;;11.50;3.63;;;14.80;99.90;;;;;;5084133;28;20208;-78
2022/06/29 03:20:22;;;;;;;5.30;3.17;;;14.80;99.90;;;;;;5091449;28;20220;-77
2022/06/29 03:22:47;;;;;;;4.50;3.10;;;14.80;99.90;;;;;;5078345;28;20197;-79
2022/06/29 03:25:14;;;;;;;5.07;3.10;;;14.80;99.90;;;;;;5101773;28;20444;-84
2022/06/29 03:27:40;;;;;;;5.00;2.97;;;14.80;99.90;;;;;;5119134;28;20191;-82
2022/06/29 03:30:06;;;;;;;6.77;2.97;;;14.70;99.90;;;;;;5120755;28;20414;-81
2022/06/29 03:32:32;;;;;;;9.93;3.63;;;14.70;99.90;;;;;;5119904;28;20191;-77
2022/06/29 03:34:58;;;;;;;7.13;3.63;;;14.70;99.90;;;;;;5120973;28;20476;-79
2022/06/29 03:37:23;;;;;;;9.77;3.97;;;14.70;99.90;;;;;;5121191;28;20164;-78
2022/06/29 03:39:49;;;;;;;6.13;3.30;;;14.70;99.90;;;;;;5116334;28;20314;-77
2022/06/29 03:42:15;;;;;;;4.23;2.90;;;14.60;99.90;;;;;;5093180;28;20594;-77
2022/06/29 03:44:40;;;;;;;8.43;3.57;;;14.60;99.90;;;;;;5089352;28;20651;-77
2022/06/29 03:47:07;;;;;;;8.57;4.17;;;14.70;99.90;;;;;;5090034;28;20438;-78
2022/06/29 03:49:35;;;;;;;11.73;3.13;;;14.60;99.90;;;;;;5091853;28;20181;-77
2022/06/29 03:52:01;;;;;;;16.17;3.60;;;14.60;99.90;;;;;;5084673;28;20458;-78
2022/06/29 03:54:26;;;;;;;4.43;3.23;;;14.60;99.90;;;;;;5091631;28;20426;-77
2022/06/29 03:56:52;;;;;;;13.47;3.70;;;14.60;99.90;;;;;;5090229;28;20855;-79
2022/06/29 03:59:18;;;;;;;6.57;4.83;;;14.60;99.90;;;;;;5092566;28;20188;-78
2022/06/29 04:01:43;;;;;;;8.63;4.90;;;14.60;99.90;;;;;;5073324;28;20254;-79
2022/06/29 04:04:09;;;;;;;10.30;3.90;;;14.60;99.90;;;;;;5076060;28;20641;-81
2022/06/29 04:06:34;;;;;;;4.90;3.30;;;14.60;99.90;;;;;;5074831;28;20669;-77
2022/06/29 04:09:00;;;;;;;7.50;4.40;;;14.60;99.90;;;;;;5091179;28;20177;-77
2022/06/29 04:14:10;;;;;;;6.70;3.53;;;14.70;99.90;;;;;;5086639;28;20199;-77
2022/06/29 04:16:36;;;;;;;10.03;4.60;;;14.70;99.90;;;;;;5081839;28;20438;-78
2022/06/29 04:19:01;;;;;;;11.63;3.90;;;14.70;99.90;;;;;;5084421;28;20180;-78
2022/06/29 04:21:27;;;;;;;8.40;4.50;;;14.70;99.90;;;;;;5082353;28;20463;-75
2022/06/29 04:23:52;;;;;;;7.67;4.27;;;14.80;99.90;;;;;;5090183;28;20697;-77
2022/06/29 04:26:19;;;;;;;12.00;4.93;;;14.80;99.90;;;;;;5084790;28;20200;-79
2022/06/29 04:28:44;;;;;;;6.63;4.10;;;14.80;99.90;;;;;;5087601;28;20645;-81
2022/06/29 04:31:10;;;;;;;5.50;3.67;;;14.80;99.90;;;;;;5088344;28;20580;-77
2022/06/29 04:33:36;;;;;;;7.03;4.03;;;14.90;99.90;;;;;;5091747;28;20321;-79
2022/06/29 04:36:02;;;;;;;9.73;4.50;;;14.90;99.90;;;;;;5090980;28;20180;-83
2022/06/29 04:38:27;;;;;;;7.57;4.20;;;15.00;99.90;;;;;;5095645;28;20190;-78
2022/06/29 04:40:53;;;;;;;7.30;3.33;;;15.00;99.90;;;;;;5094418;28;20196;-76
2022/06/29 04:43:19;;;;;;;9.27;4.40;;;15.00;99.90;;;;;;5102953;28;20211;-77
2022/06/29 04:48:28;;;;;;;5.23;3.63;;;15.00;99.90;;;;;;5081474;28;20241;-80
2022/06/29 04:50:54;;;;;;;5.77;3.57;;;15.10;99.90;;;;;;5088416;28;20435;-78
2022/06/29 04:53:19;;;;;;;6.07;3.73;;;15.10;99.90;;;;;;5081442;28;20201;-78
2022/06/29 04:55:46;;;;;;;6.33;4.50;;;15.20;99.90;;;;;;5089276;28;20233;-77
2022/06/29 04:58:12;;;;;;;3.97;2.93;;;15.20;99.90;;;;;;5081383;28;20196;-78
2022/06/29 05:00:37;;;;;;;7.40;4.47;;;15.30;99.90;;;;;;5078407;28;20463;-78
2022/06/29 05:03:03;;;;;;;7.27;3.67;;;15.30;99.90;;;;;;5090541;28;20348;-79
2022/06/29 05:05:29;;;;;;;7.00;4.57;;;15.40;99.90;;;;;;5091248;28;20211;-80
2022/06/29 05:07:54;;;;;;;9.93;4.17;;;15.50;99.90;;;;;;5083555;28;20177;-78
2022/06/29 05:10:20;;;;;;;7.00;4.30;;;15.60;99.90;;;;;;5090376;28;20203;-76
2022/06/29 05:12:46;;;;;;;4.83;3.67;;;15.60;99.90;;;;;;5076057;28;20197;-77
2022/06/29 05:15:11;;;;;;;9.93;4.60;;;15.80;99.90;;;;;;5074971;28;20177;-76
2022/06/29 05:17:37;;;;;;;7.50;4.47;;;15.80;99.90;;;;;;5074052;28;20238;-77
2022/06/29 05:20:08;;;;;;;6.20;4.10;;;15.90;99.90;;;;;;5084670;28;20187;-73
2022/06/29 05:22:34;;;;;;;7.37;4.47;;;16.00;99.90;;;;;;5078485;28;20442;-79
2022/06/29 05:25:01;;;;;;;7.37;4.13;;;16.10;99.90;;;;;;5082881;28;20421;-79
2022/06/29 05:27:26;;;;;;;8.40;4.00;;;16.20;99.90;;;;;;5072868;28;20426;-77
2022/06/29 05:29:52;;;;;;;7.97;4.90;;;16.20;99.90;;;;;;5088155;28;20450;-79
2022/06/29 05:32:18;;;;;;;7.63;4.33;;;16.30;99.90;;;;;;5076484;28;20216;-77
2022/06/29 05:34:43;;;;;;;6.70;4.57;;;16.40;99.90;;;;;;5081037;28;20199;-77
2022/06/29 05:37:09;;;;;;;9.07;4.43;;;16.50;99.90;;;;;;5091867;28;20180;-77
2022/06/29 05:39:34;;;;;;;7.27;3.63;;;16.60;99.90;;;;;;5092079;28;20602;-81
2022/06/29 05:42:00;;;;;;;7.80;4.40;;;16.60;99.90;;;;;;5089515;28;20354;-76
2022/06/29 05:44:26;;;;;;;5.10;3.73;;;16.70;99.90;;;;;;5089692;28;20177;-76
2022/06/29 05:46:51;;;;;;;9.60;3.90;;;16.80;99.90;;;;;;5088964;28;20702;-79
2022/06/29 05:49:17;;;;;;;4.83;3.50;;;16.90;99.90;;;;;;5092071;28;20187;-79
2022/06/29 05:51:42;;;;;;;9.03;4.67;;;17.00;99.90;;;;;;5090559;28;20196;-76
2022/06/29 05:54:08;;;;;;;4.57;3.47;;;17.10;99.90;;;;;;5081767;28;20192;-76
2022/06/29 05:56:34;;;;;;;5.77;3.70;;;17.20;99.90;;;;;;5081493;28;20176;-78
2022/06/29 05:58:59;;;;;;;5.00;3.47;;;17.30;99.90;;;;;;5087333;28;20684;-80
2022/06/29 06:01:25;;;;;;;5.87;3.90;;;17.40;99.90;;;;;;5088619;28;20203;-77
2022/06/29 06:03:50;;;;;;;8.03;4.40;;;17.40;99.90;;;;;;5093057;28;20692;-76
2022/06/29 06:06:16;;;;;;;7.03;3.60;;;17.50;99.90;;;;;;5085619;28;20181;-76
2022/06/29 06:08:42;;;;;;;8.70;4.43;;;17.50;99.90;;;;;;5088886;28;20263;-79
2022/06/29 06:11:07;;;;;;;7.43;3.83;;;17.60;99.90;;;;;;5084519;28;20261;-76
2022/06/29 06:13:33;;;;;;;5.40;3.77;;;17.70;99.90;;;;;;5078516;28;20205;-76
2022/06/29 06:15:59;;;;;;;8.23;3.10;;;17.80;99.90;;;;;;5079247;28;20183;-76
2022/06/29 06:18:25;;;;;;;6.53;3.07;;;18.00;99.90;;;;;;5082500;28;20185;-77
2022/06/29 06:20:50;;;;;;;6.60;4.03;;;18.00;99.90;;;;;;5087440;28;20773;-78
2022/06/29 06:23:16;;;;;;;3.67;2.70;;;18.00;99.90;;;;;;5086481;28;20201;-76
2022/06/29 06:25:42;;;;;;;5.10;3.47;;;18.10;99.90;;;;;;5090742;28;20607;-78
2022/06/29 06:28:08;;;;;;;6.70;3.80;;;18.10;99.90;;;;;;5079324;28;20793;-78
2022/06/29 06:30:34;;;;;;;5.90;3.33;;;18.20;99.90;;;;;;5085682;28;20425;-78
2022/06/29 06:32:59;;;;;;;6.27;3.57;;;18.30;99.90;;;;;;5088107;28;20212;-77
2022/06/29 06:35:25;;;;;;;6.37;3.57;;;18.40;99.90;;;;;;5086811;28;20187;-77
2022/06/29 06:37:52;;;;;;;6.33;3.33;;;18.50;99.90;;;;;;5085084;28;20181;-79
2022/06/29 06:43:02;;;;;;;6.03;3.03;;;18.70;99.90;;;;;;5082843;28;20483;-77
2022/06/29 06:45:28;;;;;;;5.50;3.03;;;18.70;99.90;;;;;;5071745;28;20669;-78
2022/06/29 06:47:54;;;;;;;5.70;3.33;;;18.90;99.90;;;;;;5097692;28;20424;-77
2022/06/29 06:50:20;;;;;;;5.87;3.17;;;19.00;99.90;;;;;;5087588;28;21252;-77
2022/06/29 06:52:46;;;;;;;4.40;3.03;;;19.10;99.90;;;;;;5072191;28;20201;-82
2022/06/29 06:55:13;;;;;;;4.97;2.80;;;19.20;99.90;;;;;;5087364;28;20173;-77
2022/06/29 06:57:38;;;;;;;4.87;3.27;;;19.40;99.90;;;;;;5072086;28;20196;-77
2022/06/29 07:00:05;;;;;;;3.60;2.70;;;19.40;99.90;;;;;;5085066;28;20432;-79
2022/06/29 07:02:31;;;;;;;5.43;3.30;;;19.70;99.90;;;;;;5082546;28;20263;-78
2022/06/29 07:04:56;;;;;;;3.27;2.23;;;19.90;99.90;;;;;;5089648;28;20426;-77
2022/06/29 07:07:22;;;;;;;7.27;3.13;;;20.00;99.90;;;;;;5097102;28;20260;-78
2022/06/29 07:09:48;;;;;;;4.93;2.83;;;20.30;99.90;;;;;;5093686;28;20252;-74
2022/06/29 07:12:14;;;;;;;4.33;3.03;;;20.50;99.90;;;;;;5101763;28;20209;-76
2022/06/29 07:14:39;;;;;;;7.60;3.63;;;20.70;99.90;;;;;;5101912;28;20770;-78
2022/06/29 07:17:05;;;;;;;4.10;2.80;;;20.90;99.90;;;;;;5093346;28;20211;-76
2022/06/29 07:19:31;;;;;;;5.13;3.40;;;21.10;99.90;;;;;;5075104;28;20753;-76
2022/06/29 07:21:56;;;;;;;4.80;3.27;;;20.90;99.90;;;;;;5080275;28;20210;-78
2022/06/29 07:24:22;;;;;;;5.53;3.53;;;21.00;99.90;;;;;;5091427;28;20177;-77
2022/06/29 07:26:48;;;;;;;6.00;3.43;;;21.10;99.90;;;;;;5101855;28;20176;-77
2022/06/29 07:29:13;;;;;;;4.40;2.70;;;21.40;99.90;;;;;;5086689;28;20652;-78
2022/06/29 07:31:39;;;;;;;5.77;3.33;;;21.70;99.90;;;;;;5102789;28;20299;-80
2022/06/29 07:34:04;;;;;;;4.90;2.70;;;22.30;99.90;;;;;;5118965;28;20187;-81
2022/06/29 07:36:30;;;;;;;3.70;2.40;;;22.70;99.90;;;;;;5091549;28;20550;-80
2022/06/29 07:38:56;;;;;;;3.97;2.57;;;23.10;99.90;;;;;;5114465;28;20229;-79
2022/06/29 07:41:22;;;;;;;4.43;2.57;;;23.50;99.90;;;;;;5083824;28;20541;-78
2022/06/29 07:43:48;;;;;;;4.43;2.90;;;24.10;99.80;;;;;;5087158;28;20555;-80
2022/06/29 07:46:13;;;;;;;4.57;2.80;;;25.10;97.60;;;;;;5089467;28;20176;-77
2022/06/29 07:48:39;;;;;;;5.63;3.15;;;25.40;96.70;;;;;;5088286;28;20184;-77
2022/06/29 07:51:05;;;;;;;5.38;3.08;;;26.10;95.00;;;;;;5077641;28;20195;-78
2022/06/29 07:53:31;;;;;;;4.88;2.80;;;27.30;93.40;;;;;;5083864;28;20673;-82
2022/06/29 07:55:56;;;;;;;3.85;2.50;;;27.50;91.90;;;;;;5091607;28;20593;-79
2022/06/29 07:58:22;;;;;;;4.03;2.72;;;26.40;93.00;;;;;;5085807;28;20172;-78
2022/06/29 08:00:48;;;;;;;3.95;2.42;;;25.40;94.30;;;;;;5100631;28;20248;-80
2022/06/29 08:03:14;;;;;;;6.38;3.40;;;25.10;95.00;;;;;;5089974;28;20839;-77
2022/06/29 08:05:40;;;;;;;3.92;2.50;;;25.60;94.10;;;;;;5087172;27;20183;-79
2022/06/29 08:08:06;;;;;;;4.50;2.78;;;25.70;93.50;;;;;;5087337;28;20257;-79
2022/06/29 08:10:33;;;;;;;4.65;2.35;;;25.30;94.20;;;;;;5095915;28;20196;-79
2022/06/29 08:12:59;;;;;;;5.00;2.72;;;25.50;94.40;;;;;;5082041;28;20191;-79
2022/06/29 08:15:26;;;;;;;9.45;2.63;;;25.80;94.20;;;;;;5098410;28;20698;-80
2022/06/29 08:17:52;;;;;;;3.83;2.55;;;26.30;93.00;;;;;;5092957;28;20179;-81
2022/06/29 08:20:19;;;;;;;7.32;2.45;;;25.90;93.80;;;;;;5093534;28;20194;-83
2022/06/29 08:22:44;;;;;;;7.47;2.85;;;26.00;93.30;;;;;;5085424;28;20203;-79
2022/06/29 08:25:11;;;;;;;5.35;2.67;;;26.40;92.80;;;;;;5082116;28;20180;-81
2022/06/29 08:27:37;;;;;;;4.03;2.33;;;26.90;91.40;;;;;;5081739;28;20177;-79
2022/06/29 08:30:04;;;;;;;4.40;2.63;;;27.30;91.50;;;;;;5079837;28;20184;-80
2022/06/29 08:32:29;;;;;;;5.65;2.90;;;27.60;91.10;;;;;;5084879;28;20211;-80
2022/06/29 08:34:59;;;;;;;4.25;2.58;;;28.00;90.20;;;;;;5088190;28;20181;-79
2022/06/29 08:37:26;;;;;;;4.40;2.17;;;28.30;88.90;;;;;;5089680;28;20267;-83
2022/06/29 08:39:51;;;;;;;4.18;3.13;;;28.50;90.00;;;;;;5081419;28;20259;-78
2022/06/29 08:42:21;;;;;;;5.57;2.63;;;28.90;86.60;;;;;;5090259;28;20622;-82
2022/06/29 08:44:49;;;;;;;7.00;2.42;;;29.20;86.00;;;;;;5088002;28;20185;-80
2022/06/29 08:47:14;;;;;;;4.43;2.72;;;28.70;85.70;;;;;;5087573;28;20187;-82
2022/06/29 08:49:40;;;;;;;4.65;2.85;;;28.50;87.30;;;;;;5084336;28;20177;-81
2022/06/29 08:52:08;;;;;;;3.95;2.78;;;29.20;85.30;;;;;;5096036;28;20211;-77
2022/06/29 08:54:41;;;;;;;4.50;2.40;;;29.90;82.20;;;;;;5092772;28;20206;-81
2022/06/29 08:57:07;;;;;;;3.58;2.05;;;29.60;84.30;;;;;;5093280;28;20191;-80
2022/06/29 08:59:37;;;;;;;5.68;2.95;;;29.40;82.10;;;;;;5088374;28;20925;-79
2022/06/29 09:02:03;;;;;;;11.75;2.92;;;28.70;83.90;;;;;;5083024;28;20224;-79
2022/06/29 09:04:29;;;;;;;4.15;2.75;;;28.00;85.50;;;;;;5091365;28;20696;-80
2022/06/29 09:06:56;;;;;;;5.32;3.45;;;27.00;88.80;;;;;;5078746;28;20723;-79
2022/06/29 09:09:23;;;;;;;5.15;2.88;;;26.40;90.50;;;;;;5091433;28;20184;-79
2022/06/29 09:11:51;;;;;;;5.07;2.75;;;26.00;91.40;;;;;;5085719;28;20207;-79
2022/06/29 09:14:28;;;;;;;4.80;3.22;;;25.60;91.80;;;;;;5104197;28;20167;-78
2022/06/29 09:17:01;;;;;;;11.63;2.65;;;25.40;91.90;;;;;;5093989;28;20183;-80
2022/06/29 09:19:34;;;;;;;9.53;3.00;;;25.20;92.20;;;;;;5089082;28;20184;-79
2022/06/29 09:22:00;;;;;;;4.53;3.30;;;24.90;92.90;;;;;;5077401;28;20237;-76
2022/06/29 09:24:28;;;;;;;5.10;2.83;;;25.00;92.00;;;;;;5076078;28;20209;-79
2022/06/29 09:26:59;;;;;;;4.10;2.90;;;24.90;92.60;;;;;;5075953;28;20203;-82
2022/06/29 09:29:29;;;;;;;5.93;2.90;;;25.00;92.10;;;;;;5087155;28;20179;-83
2022/06/29 09:32:06;;;;;;;3.77;2.57;;;25.40;91.90;;;;;;5079276;28;20464;-83
2022/06/29 09:34:37;;;;;;;4.95;3.00;;;26.10;91.10;;;;;;5082214;28;20211;-79
2022/06/29 09:37:04;;;;;;;7.05;3.03;;;27.30;87.30;;;;;;5069762;28;20179;-79
2022/06/29 09:39:38;;;;;;;5.53;2.40;;;27.50;90.50;;;;;;5080171;28;20758;-82
2022/06/29 09:42:07;;;;;;;3.42;2.53;;;28.10;87.80;;;;;;5081085;28;20215;-75
2022/06/29 09:44:33;;;;;;;3.83;2.38;;;28.40;84.70;;;;;;5068805;28;20290;-82
2022/06/29 09:47:05;;;;;;;4.10;2.50;;;28.90;86.10;;;;;;5084216;28;20187;-81
2022/06/29 09:49:33;;;;;;;4.60;2.75;;;28.90;83.90;;;;;;5075773;28;20292;-79
2022/06/29 09:51:59;;;;;;;6.10;3.10;;;28.40;82.90;;;;;;5067588;28;20857;-81
2022/06/29 09:54:35;;;;;;;3.58;2.30;;;28.00;86.30;;;;;;5077210;28;20208;-80
2022/06/29 09:57:02;;;;;;;7.47;3.03;;;28.00;86.00;;;;;;5085680;28;20191;-84
2022/06/29 10:02:37;;;;;;;5.75;2.90;;;27.10;89.70;;;;;;5077945;28;20225;-81
2022/06/29 10:05:13;;;;;;;7.82;3.20;;;26.60;89.10;;;;;;5079723;28;20505;-77
2022/06/29 10:07:41;;;;;;;6.25;3.13;;;26.00;90.50;;;;;;5080879;28;20179;-78
2022/06/29 10:10:12;;;;;;;12.67;2.87;;;25.70;90.90;;;;;;5094310;28;20187;-79
2022/06/29 10:15:56;;;;;;;3.92;2.47;;;26.30;90.40;;;;;;5081205;28;20238;-79
2022/06/29 10:18:30;;;;;;;6.10;2.97;;;26.30;91.60;;;;;;5079348;28;20180;-78
2022/06/29 10:20:58;;;;;;;5.43;2.90;;;26.70;90.10;;;;;;5082540;28;20206;-78
2022/06/29 10:23:47;;;;;;;8.68;2.00;;;26.80;89.70;;;;;;5089241;28;20222;-84
2022/06/29 10:26:39;;;;;;;4.97;2.70;;;26.70;90.10;;;;;;5089413;28;20210;-80
2022/06/29 10:29:05;;;;;;;5.03;2.28;;;26.60;90.30;;;;;;5083574;28;20180;-78
2022/06/29 10:31:49;;;;;;;4.70;2.53;;;26.40;91.20;;;;;;5085724;28;20648;-77
2022/06/29 10:37:15;;;;;;;8.83;2.87;;;25.80;91.30;;;;;;5092079;28;20266;-80
2022/06/29 10:39:50;;;;;;;8.30;2.93;;;25.50;91.80;;;;;;5090407;28;20413;-84
2022/06/29 10:45:09;;;;;;;4.40;1.70;;;25.20;92.60;;;;;;5112574;28;20384;-79
2022/06/29 10:47:35;;;;;;;4.23;2.83;;;25.20;93.10;;;;;;5113453;28;20911;-85
2022/06/29 10:50:20;;;;;;;4.03;2.57;;;25.10;92.30;;;;;;5116086;28;20413;-85
2022/06/29 10:52:48;;;;;;;3.53;2.20;;;25.20;92.00;;;;;;5109484;28;20505;-78
2022/06/29 10:55:15;;;;;;;6.57;3.63;;;25.60;93.20;;;;;;5100747;28;20422;-79
2022/06/29 10:57:42;;;;;;;7.73;2.83;;;25.90;91.70;;;;;;5100715;28;20482;-78
2022/06/29 11:00:29;;;;;;;4.60;2.00;;;26.20;91.20;;;;;;5090992;28;20483;-80
2022/06/29 11:02:56;;;;;;;3.87;2.70;;;26.30;90.80;;;;;;5090214;28;20438;-78
2022/06/29 11:05:22;;;;;;;4.77;2.93;;;26.30;91.10;;;;;;5088087;28;20426;-75
2022/06/29 11:13:25;;;;;;;2.57;1.73;;;25.20;92.20;;;;;;5087795;28;20432;-79
2022/06/29 11:15:53;;;;;;;4.83;2.60;;;25.10;92.50;;;;;;5076321;28;20459;-81
2022/06/29 11:18:26;;;;;;;7.73;2.43;;;24.80;93.40;;;;;;5075750;28;20465;-81
2022/06/29 11:20:53;;;;;;;4.47;2.20;;;24.90;93.00;;;;;;5074212;28;20888;-82
2022/06/29 11:23:27;;;;;;;6.33;2.60;;;25.00;93.20;;;;;;5075602;28;20515;-79
2022/06/29 11:25:56;;;;;;;4.67;2.00;;;25.10;92.20;;;;;;5086326;28;20928;-78
2022/06/29 11:28:27;;;;;;;5.70;2.80;;;25.20;92.30;;;;;;5075532;28;20458;-81
2022/06/29 11:31:10;;;;;;;5.53;2.77;;;25.30;91.80;;;;;;5073059;28;20468;-76
2022/06/29 11:33:39;;;;;;;4.33;2.60;;;26.00;90.80;;;;;;5078647;28;20445;-78
2022/06/29 11:36:10;;;;;;;4.07;2.30;;;26.20;90.30;;;;;;5081824;28;20897;-77
2022/06/29 11:38:47;;;;;;;4.30;2.40;;;26.40;90.30;;;;;;5082295;28;20954;-75
2022/06/29 11:41:19;;;;;;;8.93;3.50;;;26.50;90.30;;;;;;5085068;28;20469;-78
2022/06/29 11:43:46;;;;;;;5.03;2.10;;;26.70;90.10;;;;;;5080060;28;20859;-80
2022/06/29 11:46:20;;;;;;;3.30;2.50;;;26.80;87.80;;;;;;5084762;28;20183;-77
2022/06/29 11:51:56;;;;;;;4.73;2.30;;;26.40;90.30;;;;;;5087127;28;20653;-77
2022/06/29 11:54:35;;;;;;;3.73;2.00;;;26.20;90.90;;;;;;5088879;28;20176;-77
2022/06/29 11:57:03;;;;;;;6.00;3.03;;;26.20;90.90;;;;;;5087214;28;20720;-77
2022/06/29 11:59:32;;;;;;;7.90;2.73;;;26.10;91.60;;;;;;5090459;28;20179;-78
2022/06/29 12:01:59;;;;;;;7.67;2.60;;;25.90;93.10;;;;;;5081702;28;20208;-78
2022/06/29 12:04:37;;;;;;;6.20;2.40;;;26.00;92.00;;;;;;5089277;28;20445;-78
2022/06/29 12:07:10;;;;;;;7.83;2.80;;;25.90;92.40;;;;;;5088067;28;20414;-78
2022/06/29 12:09:37;;;;;;;3.73;2.70;;;26.30;92.20;;;;;;5076771;28;20514;-78
2022/06/29 12:12:08;;;;;;;4.27;2.57;;;26.20;92.70;;;;;;5075256;28;20442;-78
2022/06/29 12:14:34;;;;;;;5.33;2.50;;;26.20;92.40;;;;;;5083942;28;20471;-79
2022/06/29 12:17:00;;;;;;;6.20;3.17;;;26.40;92.10;;;;;;5083911;28;20758;-80
2022/06/29 12:19:26;;;;;;;7.80;2.67;;;26.70;92.80;;;;;;5076199;28;20422;-79
2022/06/29 12:21:53;;;;;;;8.63;3.00;;;26.80;92.30;;;;;;5079310;28;20216;-79
2022/06/29 12:24:20;;;;;;;7.03;2.60;;;27.20;91.40;;;;;;5075138;28;20238;-78
2022/06/29 12:26:46;;;;;;;7.30;3.47;;;27.10;91.10;;;;;;5082847;28;20189;-79
2022/06/29 12:29:13;;;;;;;4.13;2.77;;;27.00;91.50;;;;;;5079707;28;20226;-80
2022/06/29 12:31:43;;;;;;;6.90;3.03;;;26.70;91.00;;;;;;5088094;28;20769;-78
2022/06/29 12:34:10;;;;;;;5.10;2.80;;;26.60;90.80;;;;;;5078236;28;20180;-80
2022/06/29 12:36:35;;;;;;;3.80;2.27;;;26.30;92.10;;;;;;5074283;28;20192;-78
2022/06/29 12:39:01;;;;;;;10.47;2.80;;;26.30;91.90;;;;;;5082064;28;20180;-78
2022/06/29 12:41:27;;;;;;;7.40;2.87;;;26.50;90.70;;;;;;5075160;28;20660;-79
2022/06/29 12:43:53;;;;;;;5.07;1.90;;;26.70;90.60;;;;;;5079544;28;20168;-78
2022/06/29 12:46:18;;;;;;;6.70;2.13;;;26.90;91.20;;;;;;5077334;28;20177;-76
2022/06/29 12:48:44;;;;;;;5.57;2.87;;;27.20;90.50;;;;;;5075048;28;20188;-78
2022/06/29 12:51:09;;;;;;;3.33;2.27;;;27.30;88.20;;;;;;5072065;28;20219;-78
2022/06/29 12:53:36;;;;;;;4.67;1.93;;;27.30;88.90;;;;;;5073617;28;20231;-80
2022/06/29 12:56:05;;;;;;;3.30;2.30;;;27.60;89.50;;;;;;5068902;28;20185;-81
2022/06/29 12:58:31;;;;;;;3.70;1.80;;;27.60;89.50;;;;;;5068892;28;20207;-77
2022/06/29 13:00:57;;;;;;;3.93;2.00;;;27.60;89.30;;;;;;5073345;28;20220;-84
2022/06/29 13:03:24;;;;;;;7.53;2.20;;;27.40;88.90;;;;;;5075675;28;20301;-78
2022/06/29 13:05:50;;;;;;;6.57;2.23;;;27.20;88.20;;;;;;5068164;28;20318;-78
2022/06/29 13:08:16;;;;;;;3.63;2.20;;;27.00;90.30;;;;;;5077659;28;20271;-78
2022/06/29 13:10:42;;;;;;;8.53;2.80;;;26.90;89.20;;;;;;5085041;28;20817;-79
2022/06/29 13:13:08;;;;;;;4.73;2.43;;;26.90;90.40;;;;;;5076102;28;20212;-80
2022/06/29 13:15:34;;;;;;;6.70;1.80;;;27.00;89.20;;;;;;5084466;28;20177;-77
2022/06/29 13:18:02;;;;;;;3.37;2.30;;;27.10;91.30;;;;;;5081287;28;20192;-78